Details From FSIA - SEYCHELLES INTL
To FSPP - PRASLIN
Flight Number -
Tags generated
Created
Modified
Stats Distance 26 nm / 48 km
Max Altitude 200 ft / 61 m
Waypoints 3
Social Downloads 0
Likes 0
Share VATSIM

Download

Looking for another format? Having issues loading an existing format? Contact us
Advertisement - Login to hide

Notes

Basic altitude profile: - Ascent Rate: 2500ft/min - Ascent Speed: 250kts - Cruise Altitude: 35000ft - Cruise Speed: 420kts - Descent Rate: 1500ft/min - Descent Speed: 250kts Options: - Use NATs: yes - Use PACOTS: yes - Use low airways: yes - Use high airways: yes

Route

FSIA PRA FSPP

ID Type Via Altitude Latitude Longitude Leg Dist Tot Dist Heading (true) Name
O FSIA APT - 0 ft / 0 m -4.67438˚ 55.52183˚ - 0 nm - SEYCHELLES INTL
PRA VOR - 200 ft / 61 m -4.30737˚ 55.70707˚ 24 nm 24 nm 27° / 27° PRASLIN VOR-DME
O FSPP APT - 0 ft / 0 m -4.31929˚ 55.69142˚ 1 nm 25 nm 233° / 233° PRASLIN

Altitude Profile

Advertisement - Login to hide

FSIA

Details ICAO FSIA (SEZ)
Name SEYCHELLES INTL
Region Seychelles
Timezone Unknown (UTC+0.0)
Stats Elevation 10 ft / 3 m (AMSL)
Location -4.674378° 55.521829°
Runways 1
Magnetic Variation 5.043° W

METAR

FSIA 181100Z 32007KT 9999 FEW014CB SCT016 29/24 Q1011 NOSIG

Decode

TAF

TAF FSIA 180501Z 1806/1906 30010KT 9999 FEW014CB SCT017 PROB40 TEMPO 1806/1812 -SHRA FEW013CB BKN016 TEMPO 1900/1906 -SHRA FEW013CB BKN015

Decode

Departure Runways

ID Width Length Bearing (true) Bearing (mag) Surface Threshold Offset Overrun Length
13 151 ft / 46 m 9,813 ft / 2,991 m 125.18° 130.22° Concrete 1,001 ft / 305 m 279 ft / 85 m
31 151 ft / 46 m 9,813 ft / 2,991 m 305.18° 310.22° Concrete 1,001 ft / 305 m 115 ft / 35 m

FSPP

Details ICAO FSPP (PRI)
Name PRASLIN
Region Seychelles
Timezone Indian/Mahe (UTC+4.0)
Stats Elevation 10 ft / 3 m (AMSL)
Location -4.319293° 55.691415°
Runways 1
Magnetic Variation 4.895° W

METAR

FSPP 181000Z 34010KT //// //// 29/24 Q1012

Decode

TAF

Not found

Destination Runways

ID Width Length Bearing (true) Bearing (mag) Surface Threshold Offset Overrun Length
15 104 ft / 32 m 4,621 ft / 1,408 m 149.28° 154.17° Asphalt 676 ft / 206 m 0 ft / 0 m
33 104 ft / 32 m 4,621 ft / 1,408 m 329.28° 334.17° Asphalt 256 ft / 78 m 0 ft / 0 m

Popular Alternatives